Time;durP1;ratioP1;P1;durP2;ratioP2;P2;SDS_P1;SDS_P2;PMS_P1;PMS_P2;Temp;Humidity;BMP_temperature;BMP_pressure;BME280_temperature;BME280_humidity;BME280_pressure;Samples;Min_cycle;Max_cycle;Signal;HPM_P1;HPM_P2
2023/10/29 00:01:38;;;;;;;13.50;12.63;;;11.10;89.40;;;;;;4858471;29;20196;-39
2023/10/29 00:04:04;;;;;;;13.80;12.90;;;11.20;90.80;;;;;;4851688;29;20720;-40
2023/10/29 00:06:30;;;;;;;14.03;13.13;;;11.20;86.30;;;;;;4851670;29;20238;-40
2023/10/29 00:08:56;;;;;;;14.50;13.60;;;11.20;86.60;;;;;;4854844;29;20813;-39
2023/10/29 00:11:22;;;;;;;16.50;15.33;;;11.20;87.60;;;;;;4852709;29;20232;-40
2023/10/29 00:13:47;;;;;;;16.30;15.17;;;11.20;88.80;;;;;;4850546;29;20629;-40
2023/10/29 00:16:13;;;;;;;15.83;14.63;;;11.20;90.80;;;;;;4851157;29;20716;-40
2023/10/29 00:18:40;;;;;;;15.83;14.73;;;11.20;91.30;;;;;;4851255;29;20473;-40
2023/10/29 00:21:06;;;;;;;15.80;14.73;;;11.20;91.10;;;;;;4846633;29;20204;-40
2023/10/29 00:23:32;;;;;;;15.53;14.40;;;11.20;82.30;;;;;;4851721;29;20835;-41
2023/10/29 00:25:58;;;;;;;15.40;14.20;;;11.20;83.40;;;;;;4855426;29;20987;-40
2023/10/29 00:28:25;;;;;;;14.93;13.93;;;11.20;90.50;;;;;;4860173;29;20424;-40
2023/10/29 00:30:51;;;;;;;14.10;13.20;;;11.20;86.00;;;;;;4861318;29;20184;-40
2023/10/29 00:33:16;;;;;;;14.10;13.20;;;11.20;85.60;;;;;;4851101;29;20437;-40
2023/10/29 00:35:42;;;;;;;12.90;11.90;;;11.20;79.50;;;;;;4851367;29;20188;-47
2023/10/29 00:38:07;;;;;;;13.50;12.70;;;11.20;73.30;;;;;;4851569;29;20185;-41
2023/10/29 00:40:38;;;;;;;13.20;12.50;;;11.30;69.30;;;;;;4854477;29;20217;-39
2023/10/29 00:43:04;;;;;;;13.40;12.63;;;11.30;56.10;;;;;;4855341;29;20203;-40
2023/10/29 00:45:29;;;;;;;13.37;12.67;;;11.40;49.30;;;;;;4857947;29;20558;-40
2023/10/29 00:47:56;;;;;;;12.70;11.97;;;11.50;47.40;;;;;;4850480;29;20598;-40
2023/10/29 00:50:21;;;;;;;13.17;12.30;;;11.50;46.00;;;;;;4850262;29;20200;-39
2023/10/29 00:52:48;;;;;;;13.43;12.73;;;11.50;40.90;;;;;;4851681;29;20825;-40
2023/10/29 00:55:13;;;;;;;12.67;11.93;;;11.50;34.50;;;;;;4851135;29;20552;-41
2023/10/29 00:57:39;;;;;;;12.60;11.80;;;11.60;36.50;;;;;;4850700;29;20426;-41
2023/10/29 01:00:06;;;;;;;12.70;11.67;;;11.60;30.40;;;;;;4848747;29;20189;-41
2023/10/29 01:02:33;;;;;;;12.50;11.80;;;11.60;26.90;;;;;;4856055;29;20327;-40
2023/10/29 01:04:58;;;;;;;13.03;12.33;;;11.60;23.90;;;;;;4852174;29;20515;-40
2023/10/29 01:07:24;;;;;;;13.30;12.50;;;11.70;21.20;;;;;;4859522;29;21068;-40
2023/10/29 01:09:50;;;;;;;13.20;12.40;;;11.70;21.20;;;;;;4851910;29;20185;-40
2023/10/29 01:12:20;;;;;;;12.20;11.60;;;11.70;22.20;;;;;;4858197;29;20485;-40
2023/10/29 01:14:45;;;;;;;12.60;11.90;;;11.70;21.70;;;;;;4850176;29;20440;-40
2023/10/29 01:17:11;;;;;;;13.17;12.40;;;11.70;23.30;;;;;;4851911;29;20437;-42
2023/10/29 01:19:37;;;;;;;12.80;12.10;;;11.60;27.30;;;;;;4849971;29;20196;-39
2023/10/29 01:22:02;;;;;;;13.10;12.30;;;11.60;33.00;;;;;;4850140;29;20187;-40
2023/10/29 01:24:28;;;;;;;13.10;12.23;;;11.60;29.20;;;;;;4849465;29;20188;-40
2023/10/29 01:26:54;;;;;;;13.73;12.80;;;11.70;25.30;;;;;;4853927;29;20208;-42
2023/10/29 01:29:20;;;;;;;13.40;12.70;;;11.70;24.30;;;;;;4849622;29;21076;-42
2023/10/29 01:31:48;;;;;;;12.80;12.00;;;11.80;19.20;;;;;;4849950;29;21031;-41
2023/10/29 01:34:14;;;;;;;13.30;12.60;;;11.90;15.40;;;;;;4850010;29;20180;-40
2023/10/29 01:36:40;;;;;;;12.93;12.23;;;11.90;10.50;;;;;;4849739;29;20431;-39
2023/10/29 01:39:06;;;;;;;12.93;12.23;;;11.90;2.00;;;;;;4850056;29;20943;-39
2023/10/29 01:41:32;;;;;;;12.70;11.90;;;11.90;2.00;;;;;;4856204;29;20188;-39
2023/10/29 01:43:58;;;;;;;13.37;12.47;;;12.00;1.00;;;;;;4848999;29;20541;-42
2023/10/29 01:46:24;;;;;;;13.13;12.43;;;12.00;1.00;;;;;;4852283;29;20468;-40
2023/10/29 01:48:50;;;;;;;13.07;12.20;;;12.00;1.00;;;;;;4849409;29;20196;-41
2023/10/29 01:51:16;;;;;;;13.40;12.10;;;12.10;1.00;;;;;;4849859;29;20924;-40
2023/10/29 01:53:41;;;;;;;13.23;12.53;;;12.10;1.00;;;;;;4850890;29;20196;-41
2023/10/29 01:56:07;;;;;;;12.90;12.23;;;12.10;1.00;;;;;;4849697;29;20780;-40
2023/10/29 01:58:34;;;;;;;13.10;12.30;;;12.20;1.00;;;;;;4849569;29;20192;-41
2023/10/29 02:00:59;;;;;;;12.30;11.60;;;12.20;1.00;;;;;;4836222;29;20464;-40
2023/10/29 02:03:26;;;;;;;12.63;11.80;;;12.30;1.00;;;;;;4848757;29;20457;-39
2023/10/29 02:05:52;;;;;;;12.17;11.47;;;12.30;1.00;;;;;;4849682;29;20216;-39
2023/10/29 02:08:18;;;;;;;12.87;12.07;;;12.30;1.00;;;;;;4850313;29;20440;-39
2023/10/29 02:10:44;;;;;;;14.07;13.17;;;12.30;1.00;;;;;;4849421;29;20928;-40
2023/10/29 02:13:10;;;;;;;12.60;12.00;;;12.30;1.00;;;;;;4850186;29;20444;-41
2023/10/29 02:15:35;;;;;;;13.00;12.20;;;12.40;1.00;;;;;;4849517;29;20449;-40
2023/10/29 02:18:01;;;;;;;13.27;12.47;;;12.40;1.00;;;;;;4849814;29;20184;-39
2023/10/29 02:20:26;;;;;;;13.10;12.20;;;12.40;1.00;;;;;;4849452;29;20195;-40
2023/10/29 02:22:52;;;;;;;13.27;12.27;;;12.40;1.00;;;;;;4849817;29;20191;-40
2023/10/29 02:25:18;;;;;;;13.23;12.50;;;12.40;1.00;;;;;;4849163;29;20233;-40
2023/10/29 02:27:43;;;;;;;12.80;12.10;;;12.40;1.00;;;;;;4853776;29;20243;-40
2023/10/29 02:30:10;;;;;;;13.40;12.50;;;12.40;1.00;;;;;;4850435;29;20193;-40
2023/10/29 02:32:36;;;;;;;13.07;12.37;;;12.40;1.00;;;;;;4849474;29;20374;-39
2023/10/29 02:35:02;;;;;;;12.80;12.10;;;12.50;1.00;;;;;;4851708;29;21557;-40
2023/10/29 02:37:28;;;;;;;13.00;12.20;;;12.40;1.00;;;;;;4849056;29;20449;-41
2023/10/29 02:39:53;;;;;;;13.80;12.87;;;12.40;1.00;;;;;;4849609;29;20203;-42
2023/10/29 02:42:19;;;;;;;13.23;12.53;;;12.30;1.00;;;;;;4849494;29;20188;-40
2023/10/29 02:44:45;;;;;;;13.33;12.23;;;12.30;1.00;;;;;;4849200;29;20200;-46
2023/10/29 02:47:10;;;;;;;12.70;12.00;;;12.30;1.00;;;;;;4852213;29;20551;-43
2023/10/29 02:49:36;;;;;;;13.47;12.67;;;12.40;1.00;;;;;;4849016;29;20523;-40
2023/10/29 02:52:02;;;;;;;12.70;11.90;;;12.40;1.00;;;;;;4849669;29;20192;-40
2023/10/29 02:54:27;;;;;;;12.90;12.20;;;12.40;1.00;;;;;;4853733;29;20184;-40
2023/10/29 02:56:53;;;;;;;12.33;11.63;;;12.50;1.00;;;;;;4849665;29;20188;-41
2023/10/29 02:59:20;;;;;;;13.00;12.13;;;12.50;1.00;;;;;;4849414;29;20197;-40
2023/10/29 03:01:45;;;;;;;13.40;12.50;;;12.50;1.00;;;;;;4849296;29;20645;-40
2023/10/29 03:05:02;;;;;;;12.90;12.10;;;12.50;1.00;;;;;;4848675;29;20433;-40
2023/10/29 03:07:28;;;;;;;12.50;11.70;;;12.50;1.00;;;;;;4848129;29;20243;-39
2023/10/29 03:09:53;;;;;;;12.60;11.90;;;12.50;1.00;;;;;;4832369;29;20520;-41
2023/10/29 03:12:19;;;;;;;12.23;11.60;;;12.50;1.00;;;;;;4848158;29;20645;-44
2023/10/29 03:14:45;;;;;;;12.17;11.50;;;12.60;1.00;;;;;;4851099;29;20245;-41
2023/10/29 03:17:10;;;;;;;13.13;12.30;;;12.50;1.00;;;;;;4841850;29;20675;-39
2023/10/29 03:19:36;;;;;;;12.33;11.50;;;12.60;1.00;;;;;;4850372;29;20184;-40
2023/10/29 03:22:01;;;;;;;12.37;11.70;;;12.60;1.00;;;;;;4851456;29;20758;-42
2023/10/29 03:24:27;;;;;;;12.97;12.10;;;12.50;1.00;;;;;;4851742;29;20687;-41
2023/10/29 03:26:54;;;;;;;11.73;11.03;;;12.50;1.00;;;;;;4856618;29;20276;-43
2023/10/29 03:29:20;;;;;;;12.27;11.57;;;12.50;1.00;;;;;;4841165;29;20208;-40
2023/10/29 03:31:46;;;;;;;12.20;11.50;;;12.50;1.00;;;;;;4851806;29;20437;-40
2023/10/29 03:34:12;;;;;;;11.50;10.90;;;12.50;1.00;;;;;;4853507;29;20273;-40
2023/10/29 03:36:38;;;;;;;12.07;11.53;;;12.50;1.00;;;;;;4848498;29;20512;-39
2023/10/29 03:39:03;;;;;;;11.80;11.20;;;12.60;1.00;;;;;;4856088;29;20618;-39
2023/10/29 03:41:29;;;;;;;11.87;11.27;;;12.60;1.00;;;;;;4851337;29;20197;-40
2023/10/29 03:43:54;;;;;;;12.13;11.43;;;12.60;1.00;;;;;;4856666;29;20275;-40
2023/10/29 03:46:20;;;;;;;12.47;11.67;;;12.70;1.00;;;;;;4851767;29;20532;-39
2023/10/29 03:48:46;;;;;;;12.07;11.33;;;12.70;1.00;;;;;;4856173;29;20192;-40
2023/10/29 03:51:16;;;;;;;11.97;11.37;;;12.60;1.00;;;;;;4845631;29;20215;-40
2023/10/29 03:53:41;;;;;;;12.23;11.47;;;12.60;1.00;;;;;;4851466;29;20607;-41
2023/10/29 03:56:08;;;;;;;11.97;11.27;;;12.70;1.00;;;;;;4853072;29;20447;-40
2023/10/29 03:58:33;;;;;;;11.90;11.30;;;12.70;1.00;;;;;;4858888;29;20284;-40
2023/10/29 04:01:01;;;;;;;12.27;11.57;;;12.70;1.00;;;;;;4851973;29;21616;-47
2023/10/29 04:03:28;;;;;;;12.37;11.57;;;12.80;1.00;;;;;;4854468;29;20188;-40
2023/10/29 04:05:54;;;;;;;12.27;11.67;;;12.80;1.00;;;;;;4853639;29;20612;-40
2023/10/29 04:08:19;;;;;;;12.77;12.07;;;12.80;1.00;;;;;;4851373;29;20429;-39
2023/10/29 04:10:45;;;;;;;14.47;13.50;;;12.90;1.00;;;;;;4851032;29;20422;-40
2023/10/29 04:13:10;;;;;;;12.50;11.73;;;12.90;1.00;;;;;;4851524;29;20204;-41
2023/10/29 04:15:36;;;;;;;12.10;11.40;;;12.90;1.00;;;;;;4857462;29;20184;-41
2023/10/29 04:18:02;;;;;;;12.53;11.73;;;12.90;1.00;;;;;;4854495;29;20188;-40
2023/10/29 04:20:27;;;;;;;12.50;11.80;;;12.90;1.00;;;;;;4851629;29;20272;-41
2023/10/29 04:22:53;;;;;;;12.43;11.83;;;13.00;1.00;;;;;;4850695;29;20195;-40
2023/10/29 04:25:19;;;;;;;11.87;11.27;;;13.00;1.00;;;;;;4851225;29;20180;-40
2023/10/29 04:27:44;;;;;;;12.30;11.60;;;13.00;1.00;;;;;;4860590;29;21030;-42
2023/10/29 04:30:10;;;;;;;11.97;11.27;;;13.00;1.00;;;;;;4851769;29;20180;-41
2023/10/29 04:32:36;;;;;;;11.87;11.27;;;13.10;1.00;;;;;;4859026;29;20244;-41
2023/10/29 04:35:02;;;;;;;12.30;11.53;;;13.10;1.00;;;;;;4850270;29;20515;-40
2023/10/29 04:37:27;;;;;;;11.80;11.10;;;13.10;1.00;;;;;;4850473;29;20247;-41
2023/10/29 04:39:53;;;;;;;12.37;11.30;;;13.10;1.00;;;;;;4861636;29;20668;-41
2023/10/29 04:42:19;;;;;;;12.63;11.93;;;13.10;1.00;;;;;;4850700;29;20741;-45
2023/10/29 04:44:44;;;;;;;12.60;11.90;;;13.10;1.00;;;;;;4850403;29;20196;-42
2023/10/29 04:47:10;;;;;;;12.30;11.40;;;13.00;1.00;;;;;;4850806;29;20247;-41
2023/10/29 04:49:35;;;;;;;12.33;11.50;;;13.00;1.00;;;;;;4850284;29;20201;-39
2023/10/29 04:52:01;;;;;;;11.40;10.60;;;13.10;1.00;;;;;;4857096;29;20184;-41
2023/10/29 04:54:26;;;;;;;12.20;11.50;;;13.10;1.00;;;;;;4855788;29;20193;-40
2023/10/29 04:56:52;;;;;;;11.53;10.93;;;13.10;1.00;;;;;;4850385;29;20207;-44
2023/10/29 04:59:18;;;;;;;12.17;11.50;;;13.10;1.00;;;;;;4857421;29;20207;-41
2023/10/29 05:01:43;;;;;;;11.73;11.13;;;13.10;1.00;;;;;;4851333;29;20200;-39
2023/10/29 05:04:09;;;;;;;11.60;10.77;;;13.10;1.00;;;;;;4851595;29;20668;-40
2023/10/29 05:06:34;;;;;;;10.90;10.30;;;13.10;1.00;;;;;;4850786;29;20215;-44
2023/10/29 05:09:00;;;;;;;12.70;11.83;;;13.20;1.00;;;;;;4852088;29;20223;-40
2023/10/29 05:11:25;;;;;;;11.93;11.33;;;13.20;1.00;;;;;;4853456;29;20339;-40
2023/10/29 05:13:51;;;;;;;12.00;11.40;;;13.20;1.00;;;;;;4850379;29;21067;-41
2023/10/29 05:16:19;;;;;;;11.77;11.10;;;13.30;1.00;;;;;;4845756;29;20225;-42
2023/10/29 05:18:45;;;;;;;12.30;11.60;;;13.30;1.00;;;;;;4856203;29;21661;-40
2023/10/29 05:21:10;;;;;;;11.67;10.97;;;13.30;1.00;;;;;;4849959;29;20453;-45
2023/10/29 05:23:36;;;;;;;11.57;10.97;;;13.30;1.00;;;;;;4850399;29;20188;-42
2023/10/29 05:26:02;;;;;;;11.90;11.20;;;13.30;99.90;;;;;;4850407;29;20299;-42
2023/10/29 05:28:28;;;;;;;11.93;11.30;;;13.30;1.00;;;;;;4856747;29;20199;-41
2023/10/29 05:30:53;;;;;;;11.43;10.87;;;13.40;99.90;;;;;;4850074;29;20546;-44
2023/10/29 05:33:20;;;;;;;11.17;10.53;;;13.40;1.00;;;;;;4850122;29;20428;-42
2023/10/29 05:35:46;;;;;;;11.60;11.00;;;13.40;1.00;;;;;;4850856;29;20203;-41
2023/10/29 05:38:12;;;;;;;11.67;11.07;;;13.40;1.00;;;;;;4847138;29;20564;-40
2023/10/29 05:40:38;;;;;;;11.57;11.03;;;13.50;1.00;;;;;;4854273;29;20188;-40
2023/10/29 05:43:03;;;;;;;11.43;10.83;;;13.50;99.90;;;;;;4852883;29;20455;-38
2023/10/29 05:45:29;;;;;;;11.90;11.30;;;13.50;99.90;;;;;;4850062;29;20667;-40
2023/10/29 05:47:56;;;;;;;11.63;11.03;;;13.50;99.90;;;;;;4849728;29;20256;-42
2023/10/29 05:50:25;;;;;;;12.40;11.67;;;13.50;99.90;;;;;;4849471;29;20177;-44
2023/10/29 05:52:51;;;;;;;11.93;10.93;;;13.50;99.90;;;;;;4850179;29;20429;-42
2023/10/29 05:55:18;;;;;;;11.83;11.23;;;13.60;99.90;;;;;;4849571;29;20421;-40
2023/10/29 05:57:44;;;;;;;12.77;11.80;;;13.60;99.90;;;;;;4849792;29;20181;-40
2023/10/29 06:00:11;;;;;;;11.27;10.67;;;13.60;99.90;;;;;;4848090;29;20440;-46
2023/10/29 06:02:38;;;;;;;11.53;10.80;;;13.60;99.90;;;;;;4849356;29;20192;-40
2023/10/29 06:05:05;;;;;;;10.97;10.47;;;13.60;99.90;;;;;;4849044;29;21246;-40
2023/10/29 06:07:30;;;;;;;11.90;11.30;;;13.70;99.90;;;;;;4853337;29;20587;-43
2023/10/29 06:09:56;;;;;;;11.47;10.77;;;13.70;99.90;;;;;;4856773;29;20431;-39
2023/10/29 06:12:22;;;;;;;11.70;11.03;;;13.70;99.90;;;;;;4849267;29;20247;-42
2023/10/29 06:14:48;;;;;;;11.33;10.70;;;13.70;99.90;;;;;;4847306;29;20188;-40
2023/10/29 06:17:13;;;;;;;11.70;11.00;;;13.70;99.90;;;;;;4849572;29;20434;-40
2023/10/29 06:19:39;;;;;;;11.20;10.60;;;13.70;51.60;;;;;;4848901;29;20774;-39
2023/10/29 06:22:10;;;;;;;11.60;10.97;;;13.70;5.90;;;;;;4850008;29;20191;-39
2023/10/29 06:24:35;;;;;;;10.97;10.47;;;13.80;3.00;;;;;;4849457;29;20208;-40
2023/10/29 06:27:02;;;;;;;10.87;10.37;;;13.80;1.00;;;;;;4853022;29;20556;-41
2023/10/29 06:29:28;;;;;;;11.50;10.90;;;13.80;1.00;;;;;;4848959;29;20449;-40
2023/10/29 06:31:54;;;;;;;11.20;10.70;;;13.80;1.00;;;;;;4835601;29;20448;-41
2023/10/29 06:34:21;;;;;;;11.67;11.10;;;13.90;1.00;;;;;;4851280;29;20184;-43
2023/10/29 06:36:46;;;;;;;11.40;10.80;;;13.90;1.00;;;;;;4849373;29;20189;-40
2023/10/29 06:39:12;;;;;;;11.70;11.10;;;14.00;1.00;;;;;;4849538;29;20451;-40
2023/10/29 06:41:38;;;;;;;11.50;11.00;;;14.00;1.00;;;;;;4850519;29;20192;-41
2023/10/29 06:44:04;;;;;;;12.07;11.47;;;14.00;1.00;;;;;;4850055;29;20267;-39
2023/10/29 06:46:31;;;;;;;11.53;11.03;;;14.00;1.00;;;;;;4850467;29;20212;-39
2023/10/29 06:48:57;;;;;;;11.20;10.67;;;14.00;1.00;;;;;;4848823;29;21011;-40
2023/10/29 06:51:23;;;;;;;11.07;10.47;;;13.90;1.00;;;;;;4848971;29;20425;-43
2023/10/29 06:53:48;;;;;;;11.70;11.10;;;14.00;1.00;;;;;;4856145;29;20416;-46
2023/10/29 06:56:14;;;;;;;11.17;10.67;;;14.00;1.00;;;;;;4865012;29;20657;-44
2023/10/29 06:58:40;;;;;;;11.87;11.20;;;14.00;1.00;;;;;;4851462;29;20192;-42
2023/10/29 07:01:08;;;;;;;11.50;10.80;;;14.00;1.00;;;;;;4852838;29;20188;-45
2023/10/29 07:03:34;;;;;;;12.13;11.50;;;14.10;1.00;;;;;;4854137;29;20655;-40
2023/10/29 07:06:11;;;;;;;12.20;11.50;;;14.10;1.00;;;;;;4852434;29;20567;-43
2023/10/29 07:08:37;;;;;;;10.83;10.33;;;14.10;1.00;;;;;;4852382;29;20444;-41
2023/10/29 07:11:04;;;;;;;11.30;10.70;;;14.00;1.00;;;;;;4852718;29;20483;-42
2023/10/29 07:13:30;;;;;;;11.80;11.20;;;14.10;1.00;;;;;;4852746;29;20936;-41
2023/10/29 07:15:56;;;;;;;11.40;10.83;;;14.10;1.00;;;;;;4852178;29;20504;-41
2023/10/29 07:18:23;;;;;;;11.57;10.97;;;14.10;1.00;;;;;;4852532;29;20482;-50
2023/10/29 07:20:52;;;;;;;10.93;10.43;;;14.10;1.00;;;;;;4861975;29;20879;-48
2023/10/29 07:23:18;;;;;;;12.00;11.40;;;14.10;1.00;;;;;;4852294;29;20425;-48
2023/10/29 07:25:44;;;;;;;11.80;11.03;;;14.10;1.00;;;;;;4851986;29;20417;-49
2023/10/29 07:28:10;;;;;;;11.40;10.90;;;14.20;1.00;;;;;;4853322;29;20517;-51
2023/10/29 07:30:36;;;;;;;11.37;10.87;;;14.30;1.00;;;;;;4843360;29;20230;-51
2023/10/29 07:33:02;;;;;;;11.17;10.67;;;14.30;1.00;;;;;;4850759;29;20196;-52
2023/10/29 07:35:29;;;;;;;11.10;10.60;;;14.40;1.00;;;;;;4851411;29;20936;-52
2023/10/29 07:37:54;;;;;;;11.13;10.63;;;14.40;1.00;;;;;;4855125;29;20739;-53
2023/10/29 07:40:21;;;;;;;11.80;11.30;;;14.30;1.00;;;;;;4850506;29;20445;-55
2023/10/29 07:42:47;;;;;;;11.43;10.83;;;14.40;1.00;;;;;;4840047;29;20193;-49
2023/10/29 07:45:12;;;;;;;11.87;11.17;;;14.30;1.00;;;;;;4851346;29;20861;-49
2023/10/29 07:47:38;;;;;;;11.07;10.47;;;14.30;1.00;;;;;;4852149;29;20204;-49
2023/10/29 07:50:04;;;;;;;11.30;10.70;;;14.30;1.00;;;;;;4850949;29;20192;-47
2023/10/29 07:52:30;;;;;;;10.80;10.30;;;14.30;1.00;;;;;;4850478;29;20184;-49
2023/10/29 07:54:56;;;;;;;11.47;10.87;;;14.30;1.00;;;;;;4850466;29;21430;-48
2023/10/29 07:57:21;;;;;;;11.10;10.50;;;14.20;1.00;;;;;;4850083;29;20543;-51
2023/10/29 07:59:47;;;;;;;11.57;10.87;;;14.20;1.00;;;;;;4852078;29;20344;-51
2023/10/29 08:02:12;;;;;;;12.30;11.50;;;14.20;1.00;;;;;;4851866;29;20298;-47
2023/10/29 08:04:38;;;;;;;12.30;11.70;;;14.20;1.00;;;;;;4850500;29;20191;-51
2023/10/29 08:07:04;;;;;;;11.60;11.00;;;14.30;1.00;;;;;;4854411;29;20279;-40
2023/10/29 08:09:29;;;;;;;11.00;10.50;;;14.20;1.00;;;;;;4853413;29;20614;-43
2023/10/29 08:11:55;;;;;;;10.97;10.47;;;14.20;1.00;;;;;;4851623;29;20276;-45
2023/10/29 08:14:21;;;;;;;11.40;10.90;;;14.10;1.00;;;;;;4850776;29;20272;-43
2023/10/29 08:16:46;;;;;;;11.87;10.90;;;14.10;1.00;;;;;;4850427;29;20464;-45
2023/10/29 08:19:12;;;;;;;11.60;10.90;;;14.10;1.00;;;;;;4849147;29;20260;-41
2023/10/29 08:21:38;;;;;;;11.23;10.63;;;14.10;1.00;;;;;;4845393;29;20207;-44
2023/10/29 08:24:04;;;;;;;10.90;10.40;;;14.10;1.00;;;;;;4847740;29;20192;-42
2023/10/29 08:26:31;;;;;;;10.80;10.30;;;14.10;1.00;;;;;;4853028;29;20647;-41
2023/10/29 08:28:57;;;;;;;11.60;11.00;;;14.10;1.00;;;;;;4850597;29;20445;-42
2023/10/29 08:31:23;;;;;;;11.30;10.80;;;14.20;1.00;;;;;;4849806;29;20445;-50
2023/10/29 08:33:49;;;;;;;11.27;10.67;;;14.20;1.00;;;;;;4849890;29;20209;-52
2023/10/29 08:36:20;;;;;;;11.73;11.13;;;14.30;1.00;;;;;;4848780;29;20192;-51
2023/10/29 08:38:46;;;;;;;11.23;10.70;;;14.30;1.00;;;;;;4834376;29;20453;-52
2023/10/29 08:41:15;;;;;;;10.60;10.10;;;14.30;1.00;;;;;;4850698;29;20425;-50
2023/10/29 08:43:41;;;;;;;11.03;10.43;;;14.30;1.00;;;;;;4855726;29;20513;-47
2023/10/29 08:46:07;;;;;;;11.37;10.57;;;14.40;1.00;;;;;;4853053;29;20525;-53
2023/10/29 08:48:33;;;;;;;10.80;10.30;;;14.40;1.00;;;;;;4853881;29;20248;-51
2023/10/29 08:50:59;;;;;;;11.33;10.83;;;14.40;1.00;;;;;;4842422;29;21546;-48
2023/10/29 08:53:25;;;;;;;11.63;11.13;;;14.40;1.00;;;;;;4842863;29;20453;-53
2023/10/29 08:55:51;;;;;;;11.30;10.70;;;14.50;1.00;;;;;;4842447;29;20561;-48
2023/10/29 08:58:17;;;;;;;10.87;10.33;;;14.50;1.00;;;;;;4846074;29;20184;-52
2023/10/29 09:00:45;;;;;;;10.80;10.20;;;14.60;1.00;;;;;;4840981;29;20453;-47
2023/10/29 09:03:13;;;;;;;11.30;10.80;;;14.60;1.00;;;;;;4844040;29;20964;-52
2023/10/29 09:05:39;;;;;;;10.53;10.03;;;14.70;1.00;;;;;;4848507;29;20461;-46
2023/10/29 09:08:05;;;;;;;11.30;10.70;;;14.70;1.00;;;;;;4849450;29;20564;-42
2023/10/29 09:10:32;;;;;;;10.87;10.37;;;14.70;1.00;;;;;;4853508;29;20453;-47
2023/10/29 09:12:58;;;;;;;11.83;11.17;;;14.80;1.00;;;;;;4848915;29;20492;-50
2023/10/29 09:15:25;;;;;;;11.07;10.57;;;14.80;1.00;;;;;;4849775;29;20446;-51
2023/10/29 09:17:50;;;;;;;10.87;10.37;;;14.80;1.00;;;;;;4850532;29;20465;-49
2023/10/29 09:20:16;;;;;;;11.50;10.80;;;14.80;1.00;;;;;;4850725;29;20453;-46
2023/10/29 09:22:41;;;;;;;11.43;10.83;;;14.80;1.00;;;;;;4849911;29;20207;-52
2023/10/29 09:25:08;;;;;;;10.70;10.20;;;14.80;1.00;;;;;;4833893;29;20200;-47
2023/10/29 09:27:33;;;;;;;11.20;10.47;;;14.80;1.00;;;;;;4851026;29;20242;-51
2023/10/29 09:29:59;;;;;;;11.70;11.00;;;15.00;1.00;;;;;;4845441;29;20449;-49
2023/10/29 09:32:24;;;;;;;11.07;10.57;;;15.00;1.00;;;;;;4850061;29;20199;-49
2023/10/29 09:34:54;;;;;;;11.30;10.80;;;15.00;1.00;;;;;;4850363;29;20193;-49
2023/10/29 09:37:21;;;;;;;11.40;10.70;;;15.00;1.00;;;;;;4849572;29;20652;-50
2023/10/29 09:39:47;;;;;;;10.60;10.10;;;15.10;1.00;;;;;;4834981;29;20508;-50
2023/10/29 09:42:18;;;;;;;11.00;10.50;;;15.10;1.00;;;;;;4846530;29;20458;-48
2023/10/29 09:44:47;;;;;;;11.57;10.97;;;15.10;1.00;;;;;;4855772;29;20204;-47
2023/10/29 09:47:17;;;;;;;11.10;10.60;;;15.10;1.00;;;;;;4846364;29;20485;-50
2023/10/29 09:49:43;;;;;;;11.10;10.60;;;15.10;1.00;;;;;;4853641;29;20547;-46
2023/10/29 09:52:09;;;;;;;11.30;10.70;;;15.00;1.00;;;;;;4856676;29;20444;-47
2023/10/29 09:54:38;;;;;;;11.60;10.80;;;15.20;1.00;;;;;;4862707;29;20455;-49
2023/10/29 09:57:03;;;;;;;11.13;10.63;;;15.20;1.00;;;;;;4845445;29;20464;-50
2023/10/29 09:59:29;;;;;;;12.13;11.43;;;15.30;1.00;;;;;;4856710;29;20445;-47
2023/10/29 10:01:54;;;;;;;11.37;10.77;;;15.50;1.00;;;;;;4853041;29;20324;-48
2023/10/29 10:04:20;;;;;;;11.87;11.20;;;15.70;1.00;;;;;;4856958;29;20214;-47
2023/10/29 10:06:48;;;;;;;11.13;10.43;;;15.80;1.00;;;;;;4850704;29;20227;-49
2023/10/29 10:09:14;;;;;;;11.27;10.77;;;15.80;1.00;;;;;;4853846;29;20343;-49
2023/10/29 10:11:39;;;;;;;11.00;10.50;;;15.90;1.00;;;;;;4852317;29;20484;-47
2023/10/29 10:14:05;;;;;;;11.63;11.13;;;15.90;1.00;;;;;;4865818;29;20496;-47
2023/10/29 10:16:31;;;;;;;11.33;10.77;;;15.90;1.00;;;;;;4850360;29;20192;-48
2023/10/29 10:18:58;;;;;;;11.00;10.40;;;15.90;1.00;;;;;;4860528;29;20280;-47
2023/10/29 10:21:27;;;;;;;11.10;10.60;;;16.00;1.00;;;;;;4848610;29;20202;-49
2023/10/29 10:23:56;;;;;;;11.27;10.67;;;16.10;1.00;;;;;;4860878;29;20508;-46
2023/10/29 10:26:34;;;;;;;11.20;10.57;;;16.20;1.00;;;;;;4859456;29;20475;-45
2023/10/29 10:29:01;;;;;;;11.17;10.67;;;16.20;1.00;;;;;;4855788;29;20448;-47
2023/10/29 10:31:27;;;;;;;10.77;10.23;;;16.20;1.00;;;;;;4844510;29;20440;-45
2023/10/29 10:34:16;;;;;;;10.93;10.43;;;16.30;1.00;;;;;;4858597;29;20463;-49
2023/10/29 10:36:49;;;;;;;11.03;10.53;;;16.40;1.00;;;;;;4866473;29;20447;-50
2023/10/29 10:39:15;;;;;;;11.27;10.57;;;16.30;1.00;;;;;;4858711;29;20431;-45
2023/10/29 10:41:45;;;;;;;12.00;11.30;;;16.30;1.00;;;;;;4859618;29;21682;-48
2023/10/29 10:44:12;;;;;;;11.30;10.80;;;16.30;1.00;;;;;;4865739;29;20474;-46
2023/10/29 10:46:43;;;;;;;10.80;10.30;;;16.30;1.00;;;;;;4863679;29;20536;-49
2023/10/29 10:49:11;;;;;;;11.57;11.07;;;16.30;1.00;;;;;;4863360;29;20445;-50
2023/10/29 10:51:39;;;;;;;11.00;10.50;;;16.20;1.00;;;;;;4862530;29;21344;-48
2023/10/29 10:54:05;;;;;;;12.33;11.63;;;16.10;1.00;;;;;;4865077;29;20444;-48
2023/10/29 10:56:36;;;;;;;11.40;10.90;;;16.00;1.00;;;;;;4858401;29;21188;-48
2023/10/29 10:59:07;;;;;;;11.43;10.83;;;16.00;1.00;;;;;;4838895;29;20477;-48
2023/10/29 11:01:35;;;;;;;11.20;10.60;;;15.90;1.00;;;;;;4857990;29;20469;-49
2023/10/29 11:04:03;;;;;;;11.10;10.60;;;15.90;1.00;;;;;;4856452;29;20432;-50
2023/10/29 11:06:29;;;;;;;11.50;10.90;;;16.00;1.00;;;;;;4856072;29;20504;-49
2023/10/29 11:08:55;;;;;;;11.00;10.50;;;16.00;1.00;;;;;;4857769;29;20452;-50
2023/10/29 11:11:28;;;;;;;10.83;10.33;;;16.00;1.00;;;;;;4858449;29;20480;-52
2023/10/29 11:14:11;;;;;;;11.17;10.57;;;16.00;1.00;;;;;;4851200;29;20192;-49
2023/10/29 11:16:49;;;;;;;10.60;10.10;;;16.00;1.00;;;;;;4851933;29;20463;-49
2023/10/29 11:19:43;;;;;;;10.80;10.30;;;16.00;1.00;;;;;;4849593;29;21023;-51
2023/10/29 11:22:29;;;;;;;11.57;10.97;;;16.20;1.00;;;;;;4836952;29;20476;-50
2023/10/29 11:25:11;;;;;;;11.00;10.50;;;16.30;1.00;;;;;;4850453;29;20417;-49
2023/10/29 11:27:43;;;;;;;10.70;10.20;;;16.40;1.00;;;;;;4853876;29;20456;-49
2023/10/29 11:30:16;;;;;;;10.50;9.90;;;16.50;1.00;;;;;;4853815;29;20500;-53
2023/10/29 11:32:43;;;;;;;10.47;10.00;;;16.50;1.00;;;;;;4853377;29;21267;-48
2023/10/29 11:35:14;;;;;;;10.73;10.23;;;16.60;1.00;;;;;;4853846;29;20952;-49
2023/10/29 11:37:40;;;;;;;10.87;10.37;;;16.60;1.00;;;;;;4855432;29;20425;-51
2023/10/29 11:40:25;;;;;;;10.07;9.67;;;16.70;99.90;;;;;;4854497;29;20501;-49
2023/10/29 11:42:54;;;;;;;10.20;9.50;;;16.60;99.90;;;;;;4854749;29;20445;-45
2023/10/29 11:45:29;;;;;;;11.00;10.40;;;16.60;99.90;;;;;;4852188;29;20866;-46
2023/10/29 11:48:09;;;;;;;11.03;10.43;;;16.70;99.90;;;;;;4851216;29;20461;-48
2023/10/29 11:50:39;;;;;;;11.70;11.20;;;16.80;99.90;;;;;;4833010;29;21371;-46
2023/10/29 11:53:21;;;;;;;12.00;11.37;;;16.80;99.90;;;;;;4847578;29;20492;-47
2023/10/29 11:55:49;;;;;;;12.07;11.30;;;16.80;99.90;;;;;;4851865;29;20524;-47
2023/10/29 11:58:20;;;;;;;11.60;11.07;;;16.90;99.90;;;;;;4853999;29;20446;-48
2023/10/29 12:00:46;;;;;;;11.83;11.13;;;16.90;99.90;;;;;;4856348;29;20427;-50
2023/10/29 12:03:21;;;;;;;11.03;10.53;;;16.90;99.90;;;;;;4855078;29;20432;-50
2023/10/29 12:05:51;;;;;;;11.57;10.97;;;16.80;99.90;;;;;;4852297;29;20445;-48
2023/10/29 12:08:17;;;;;;;10.67;10.17;;;16.60;99.90;;;;;;4837328;29;21152;-51
2023/10/29 12:10:50;;;;;;;11.00;10.50;;;16.40;99.90;;;;;;4853050;29;20822;-44
2023/10/29 12:13:18;;;;;;;11.50;11.00;;;16.30;99.90;;;;;;4855660;29;21110;-48
2023/10/29 12:15:57;;;;;;;12.00;11.40;;;16.30;99.90;;;;;;4853089;29;20457;-46
2023/10/29 12:18:24;;;;;;;11.20;10.70;;;16.40;99.90;;;;;;4853509;29;20464;-45
2023/10/29 12:21:01;;;;;;;11.23;10.73;;;16.40;99.90;;;;;;4851719;29;20969;-48
2023/10/29 12:23:27;;;;;;;11.40;10.90;;;16.30;99.90;;;;;;4849664;29;21248;-47
2023/10/29 12:25:53;;;;;;;11.30;10.70;;;16.30;99.90;;;;;;4852473;29;20461;-50
2023/10/29 12:28:19;;;;;;;11.60;11.07;;;16.20;99.90;;;;;;4853164;29;20250;-48
2023/10/29 12:30:47;;;;;;;11.27;10.63;;;16.30;99.90;;;;;;4852624;29;20468;-48
2023/10/29 12:33:20;;;;;;;12.00;11.30;;;16.30;99.90;;;;;;4836343;29;20430;-52